Time;durP1;ratioP1;P1;durP2;ratioP2;P2;SDS_P1;SDS_P2;PMS_P1;PMS_P2;Temp;Humidity;BMP_temperature;BMP_pressure;BME280_temperature;BME280_humidity;BME280_pressure;Samples;Min_cycle;Max_cycle;Signal;HPM_P1;HPM_P2
2023/10/31 00:00:12;;;;;;;5.30;0.70;;;28.40;82.90;;;;;;5082488;28;20710;-73
2023/10/31 00:02:43;;;;;;;4.80;0.70;;;28.50;82.40;;;;;;5083584;28;20192;-73
2023/10/31 00:05:16;;;;;;;3.60;0.70;;;28.60;80.90;;;;;;5078492;28;20201;-72
2023/10/31 00:07:46;;;;;;;5.85;0.90;;;28.60;80.00;;;;;;5075070;28;20640;-73
2023/10/31 00:10:17;;;;;;;5.10;0.70;;;28.60;79.50;;;;;;5073716;28;20181;-73
2023/10/31 00:12:53;;;;;;;4.00;0.60;;;28.60;78.30;;;;;;5074884;28;20185;-72
2023/10/31 00:15:24;;;;;;;2.85;0.60;;;28.70;78.60;;;;;;5073537;28;20229;-73
2023/10/31 00:17:55;;;;;;;3.35;0.80;;;28.80;77.80;;;;;;5077421;28;20235;-73
2023/10/31 00:20:26;;;;;;;3.45;0.60;;;28.80;77.30;;;;;;5075933;28;20192;-73
2023/10/31 00:22:56;;;;;;;4.10;0.65;;;28.80;76.80;;;;;;5080237;28;20200;-73
2023/10/31 00:25:27;;;;;;;1.27;0.40;;;28.80;76.30;;;;;;5078428;28;20202;-73
2023/10/31 00:28:00;;;;;;;5.20;0.60;;;28.80;74.80;;;;;;5081468;28;20192;-73
2023/10/31 00:30:31;;;;;;;1.65;0.60;;;28.80;75.20;;;;;;5092447;28;20283;-73
2023/10/31 00:33:01;;;;;;;2.75;0.40;;;28.90;72.90;;;;;;5082390;28;20232;-73
2023/10/31 00:35:32;;;;;;;1.33;0.40;;;29.00;72.00;;;;;;5091625;28;20202;-73
2023/10/31 00:38:03;;;;;;;4.65;0.60;;;29.20;71.70;;;;;;5086780;28;20197;-74
2023/10/31 00:40:34;;;;;;;4.55;1.20;;;29.40;71.50;;;;;;5077713;28;20185;-74
2023/10/31 00:43:07;;;;;;;2.58;0.50;;;29.60;70.10;;;;;;5078771;28;20189;-74
2023/10/31 00:45:39;;;;;;;2.13;0.50;;;29.60;68.60;;;;;;5074828;28;20193;-74
2023/10/31 00:48:10;;;;;;;4.97;0.45;;;29.50;68.80;;;;;;5074210;28;20280;-78
2023/10/31 00:50:40;;;;;;;1.35;0.40;;;29.40;68.20;;;;;;5084140;28;20192;-73
2023/10/31 00:53:13;;;;;;;1.77;0.50;;;29.50;68.00;;;;;;5079146;28;20202;-75
2023/10/31 00:55:44;;;;;;;3.20;0.73;;;29.50;66.10;;;;;;5081216;28;20196;-74
2023/10/31 00:58:17;;;;;;;2.65;0.47;;;29.50;66.00;;;;;;5079393;28;20672;-74
2023/10/31 01:00:47;;;;;;;3.30;0.38;;;29.60;65.50;;;;;;5084995;28;20238;-73
2023/10/31 01:03:18;;;;;;;1.05;0.40;;;29.50;58.70;;;;;;5081758;28;20201;-74
2023/10/31 01:05:49;;;;;;;0.95;0.30;;;29.60;56.60;;;;;;5076213;28;20280;-73
2023/10/31 01:08:20;;;;;;;0.85;0.30;;;29.60;55.30;;;;;;5078075;28;20203;-74
2023/10/31 01:10:50;;;;;;;2.38;0.20;;;29.60;55.90;;;;;;5076643;28;20201;-75
2023/10/31 01:13:23;;;;;;;0.52;0.13;;;29.60;55.10;;;;;;5077676;28;20193;-73
2023/10/31 01:15:54;;;;;;;1.77;0.20;;;29.50;53.60;;;;;;5081875;28;20228;-74
2023/10/31 01:18:25;;;;;;;3.03;0.45;;;29.70;53.80;;;;;;5080081;28;20280;-74
2023/10/31 01:20:56;;;;;;;3.03;0.32;;;29.90;54.20;;;;;;5075206;28;20201;-73
2023/10/31 01:23:27;;;;;;;1.48;0.40;;;30.00;54.40;;;;;;5076775;28;20199;-73
2023/10/31 01:25:58;;;;;;;1.55;0.40;;;30.20;56.10;;;;;;5076205;28;20556;-74
2023/10/31 01:28:30;;;;;;;3.67;0.43;;;30.30;59.10;;;;;;5085141;28;20196;-73
2023/10/31 01:31:01;;;;;;;2.08;0.30;;;30.20;59.20;;;;;;5079779;28;20231;-74
2023/10/31 01:33:32;;;;;;;2.40;0.20;;;30.00;58.70;;;;;;5081016;28;20201;-74
2023/10/31 01:36:03;;;;;;;1.63;0.30;;;29.80;58.10;;;;;;5071440;28;20200;-74
2023/10/31 01:38:33;;;;;;;2.45;0.28;;;29.80;56.70;;;;;;5073306;28;20339;-74
2023/10/31 01:41:05;;;;;;;2.13;0.40;;;29.80;55.60;;;;;;5078648;28;20282;-73
2023/10/31 01:43:41;;;;;;;1.08;0.10;;;29.60;54.40;;;;;;5081500;28;20297;-73
2023/10/31 01:46:12;;;;;;;2.08;0.40;;;29.60;53.10;;;;;;5071181;28;20231;-72
2023/10/31 01:48:44;;;;;;;2.55;0.82;;;29.60;53.30;;;;;;5078994;28;20620;-73
2023/10/31 01:51:17;;;;;;;1.25;0.30;;;29.60;53.80;;;;;;5079153;28;20199;-73
2023/10/31 01:53:49;;;;;;;1.17;0.30;;;29.80;53.30;;;;;;5078303;28;20660;-74
2023/10/31 01:56:20;;;;;;;0.73;0.20;;;29.60;53.30;;;;;;5075778;28;20284;-73
2023/10/31 01:58:54;;;;;;;2.25;0.40;;;29.60;51.90;;;;;;5083520;28;20195;-73
2023/10/31 02:01:25;;;;;;;0.28;0.25;;;29.40;51.40;;;;;;5090605;28;20727;-73
2023/10/31 02:03:58;;;;;;;0.88;0.30;;;29.30;51.20;;;;;;5082189;28;20218;-73
2023/10/31 02:06:29;;;;;;;1.63;0.20;;;29.10;49.50;;;;;;5072705;28;20263;-77
2023/10/31 02:09:00;;;;;;;1.58;0.30;;;29.00;49.90;;;;;;5087437;28;20680;-73
2023/10/31 02:11:31;;;;;;;1.13;0.20;;;29.00;49.60;;;;;;5083884;28;20181;-73
2023/10/31 02:14:05;;;;;;;1.05;0.30;;;29.10;49.60;;;;;;5078061;28;20680;-73
2023/10/31 02:16:35;;;;;;;1.90;0.30;;;29.20;48.80;;;;;;5078064;28;20196;-72
2023/10/31 02:19:07;;;;;;;0.45;0.20;;;29.20;47.80;;;;;;5079833;28;20193;-73
2023/10/31 02:21:42;;;;;;;1.20;0.20;;;29.20;47.60;;;;;;5074380;28;20208;-73
2023/10/31 02:24:13;;;;;;;0.90;0.10;;;29.00;47.70;;;;;;5076511;28;20192;-73
2023/10/31 02:26:44;;;;;;;1.60;0.38;;;28.80;47.70;;;;;;5072602;28;20266;-73
2023/10/31 02:29:15;;;;;;;0.63;0.30;;;28.80;48.00;;;;;;5077643;28;20572;-74
2023/10/31 02:31:45;;;;;;;1.17;0.20;;;28.90;48.10;;;;;;5077523;28;20216;-80
2023/10/31 02:34:18;;;;;;;1.02;0.25;;;28.90;48.50;;;;;;5077628;28;20555;-73
2023/10/31 02:36:51;;;;;;;0.30;0.20;;;28.90;48.40;;;;;;5084916;28;20665;-73
2023/10/31 02:39:22;;;;;;;1.65;0.22;;;28.90;48.20;;;;;;5078019;28;20232;-72
2023/10/31 02:41:52;;;;;;;0.43;0.20;;;28.90;48.30;;;;;;5079376;28;20797;-72
2023/10/31 02:44:23;;;;;;;1.00;0.20;;;29.00;48.70;;;;;;5078777;28;20652;-72
2023/10/31 02:46:54;;;;;;;1.15;0.32;;;29.00;49.60;;;;;;5076350;28;20223;-73
2023/10/31 02:49:25;;;;;;;1.50;0.50;;;29.00;49.70;;;;;;5075100;28;20570;-73
2023/10/31 02:51:57;;;;;;;3.95;0.70;;;28.90;49.40;;;;;;5078731;28;20232;-73
2023/10/31 02:54:28;;;;;;;1.27;0.60;;;29.00;50.20;;;;;;5077873;28;20195;-72
2023/10/31 02:56:59;;;;;;;0.25;0.15;;;28.90;49.10;;;;;;5071283;28;20196;-74
2023/10/31 02:59:30;;;;;;;1.90;0.30;;;29.00;49.40;;;;;;5087144;28;20232;-73
2023/10/31 03:02:01;;;;;;;0.52;0.30;;;29.10;49.80;;;;;;5078975;28;20203;-74
2023/10/31 03:04:32;;;;;;;1.33;0.25;;;29.10;49.00;;;;;;5092372;28;20193;-72
2023/10/31 03:07:04;;;;;;;1.05;0.20;;;29.00;49.40;;;;;;5078257;28;20909;-73
2023/10/31 03:09:35;;;;;;;2.95;0.20;;;28.80;49.00;;;;;;5086597;28;20185;-73
2023/10/31 03:12:06;;;;;;;0.68;0.15;;;28.80;48.90;;;;;;5084325;28;20185;-72
2023/10/31 03:14:37;;;;;;;1.08;0.22;;;28.70;48.30;;;;;;5078616;28;20196;-74
2023/10/31 03:17:08;;;;;;;6.05;0.40;;;28.60;48.10;;;;;;5070614;28;20283;-74
2023/10/31 03:19:38;;;;;;;1.58;0.30;;;28.40;49.50;;;;;;5075372;28;20209;-74
2023/10/31 03:22:11;;;;;;;1.13;0.32;;;28.40;48.70;;;;;;5086844;28;20653;-74
2023/10/31 03:24:42;;;;;;;9.52;1.70;;;28.30;51.00;;;;;;5076911;28;20200;-73
2023/10/31 03:27:13;;;;;;;13.65;2.00;;;28.10;86.50;;;;;;5071721;28;20217;-71
2023/10/31 03:29:44;;;;;;;14.63;2.67;;;27.40;95.90;;;;;;5082073;28;20211;-72
2023/10/31 03:32:14;;;;;;;12.15;2.22;;;26.50;99.90;;;;;;5071360;28;20671;-73
2023/10/31 03:34:45;;;;;;;16.52;2.60;;;25.30;99.90;;;;;;5077826;28;20228;-72
2023/10/31 03:37:18;;;;;;;37.08;3.10;;;24.60;99.90;;;;;;5071779;28;20197;-72
2023/10/31 03:39:49;;;;;;;15.07;2.40;;;24.10;99.90;;;;;;5083427;28;20192;-73
2023/10/31 03:42:19;;;;;;;14.02;2.20;;;23.90;99.90;;;;;;5071099;28;20604;-72
2023/10/31 03:44:50;;;;;;;18.77;2.85;;;23.80;99.90;;;;;;5070495;28;20214;-74
2023/10/31 03:47:22;;;;;;;16.73;2.30;;;23.50;99.90;;;;;;5075010;28;20217;-72
2023/10/31 03:49:53;;;;;;;20.38;2.17;;;23.40;99.90;;;;;;5088608;28;20192;-73
2023/10/31 03:52:25;;;;;;;17.40;2.58;;;23.40;99.90;;;;;;5077378;28;20736;-73
2023/10/31 03:54:56;;;;;;;16.45;2.70;;;23.30;99.90;;;;;;5075239;28;20201;-72
2023/10/31 03:57:27;;;;;;;18.60;2.35;;;23.20;99.90;;;;;;5079342;28;20207;-73
2023/10/31 03:59:58;;;;;;;13.32;2.00;;;23.00;99.90;;;;;;5089990;28;20228;-73
2023/10/31 04:02:29;;;;;;;16.23;2.28;;;22.80;99.90;;;;;;5079506;28;20204;-74
2023/10/31 04:04:59;;;;;;;14.10;2.17;;;22.80;99.90;;;;;;5075698;28;20207;-73
2023/10/31 04:07:32;;;;;;;13.65;2.47;;;23.00;99.90;;;;;;5076655;28;20584;-72
2023/10/31 04:10:03;;;;;;;12.85;2.28;;;22.80;99.90;;;;;;5083882;28;20200;-72
2023/10/31 04:12:33;;;;;;;13.75;2.10;;;22.60;99.90;;;;;;5084536;28;20195;-71
2023/10/31 04:15:05;;;;;;;15.23;2.20;;;22.40;99.90;;;;;;5082157;28;20653;-73
2023/10/31 04:17:35;;;;;;;13.27;2.08;;;22.50;99.90;;;;;;5085572;28;20291;-72
2023/10/31 04:20:07;;;;;;;11.52;1.80;;;22.30;99.90;;;;;;5084242;28;20314;-72
2023/10/31 04:22:39;;;;;;;12.18;2.00;;;22.30;99.90;;;;;;5081433;28;20203;-72
2023/10/31 04:25:11;;;;;;;9.85;1.80;;;22.40;99.90;;;;;;5078343;28;20196;-71
2023/10/31 04:27:42;;;;;;;14.55;1.98;;;22.30;99.90;;;;;;5074849;28;20216;-72
2023/10/31 04:30:13;;;;;;;14.15;2.00;;;21.90;99.90;;;;;;5079768;28;20212;-72
2023/10/31 04:32:44;;;;;;;20.58;2.17;;;21.70;99.90;;;;;;5095304;28;20188;-72
2023/10/31 04:35:15;;;;;;;12.45;2.10;;;21.60;99.90;;;;;;5095342;28;20702;-73
2023/10/31 04:37:47;;;;;;;12.55;1.95;;;21.60;99.90;;;;;;5075914;28;20230;-72
2023/10/31 04:40:18;;;;;;;10.77;1.92;;;21.60;99.90;;;;;;5095449;28;20192;-71
2023/10/31 04:42:51;;;;;;;13.25;1.83;;;21.70;99.90;;;;;;5095033;28;20198;-72
2023/10/31 04:45:21;;;;;;;11.77;1.80;;;21.70;99.90;;;;;;5086177;28;20198;-72
2023/10/31 04:47:52;;;;;;;14.95;2.33;;;21.80;99.90;;;;;;5093472;28;20298;-72
2023/10/31 04:50:23;;;;;;;11.18;1.95;;;21.90;99.90;;;;;;5092917;28;20199;-72
2023/10/31 04:52:56;;;;;;;8.63;1.80;;;22.00;99.90;;;;;;5074511;28;20204;-72
2023/10/31 04:55:27;;;;;;;12.00;2.08;;;22.10;99.90;;;;;;5085134;28;20622;-72
2023/10/31 04:57:58;;;;;;;9.48;1.60;;;22.20;99.90;;;;;;5081474;28;20277;-72
2023/10/31 05:00:28;;;;;;;11.65;1.95;;;22.20;99.90;;;;;;5093275;28;20714;-71
2023/10/31 05:03:01;;;;;;;10.82;1.73;;;22.20;99.90;;;;;;5094271;28;20200;-72
2023/10/31 05:05:31;;;;;;;10.98;1.67;;;22.00;99.90;;;;;;5093179;28;20213;-72
2023/10/31 05:08:04;;;;;;;14.50;1.92;;;21.90;99.90;;;;;;5087312;28;20703;-72
2023/10/31 05:10:35;;;;;;;7.85;1.77;;;22.00;99.90;;;;;;5076777;28;20199;-72
2023/10/31 05:13:09;;;;;;;14.25;2.00;;;22.00;99.90;;;;;;5071674;28;20203;-72
2023/10/31 05:15:40;;;;;;;11.68;1.85;;;22.00;99.90;;;;;;5072894;28;20193;-72
2023/10/31 05:18:10;;;;;;;10.43;1.65;;;22.10;99.90;;;;;;5082078;28;20275;-72
2023/10/31 05:20:41;;;;;;;9.55;1.70;;;22.10;99.90;;;;;;5081199;28;20231;-71
2023/10/31 05:23:15;;;;;;;8.85;1.90;;;22.00;99.90;;;;;;5073604;28;20287;-70
2023/10/31 05:25:46;;;;;;;8.95;1.80;;;22.00;99.90;;;;;;5072665;28;20197;-71
2023/10/31 05:28:17;;;;;;;10.70;1.52;;;21.90;99.90;;;;;;5074571;28;20232;-71
2023/10/31 05:30:50;;;;;;;10.52;1.83;;;21.90;99.90;;;;;;5086192;28;20216;-71
2023/10/31 05:33:23;;;;;;;10.30;1.77;;;21.80;99.90;;;;;;5081664;28;20705;-71
2023/10/31 05:35:53;;;;;;;10.70;2.03;;;21.70;99.90;;;;;;5078769;28;20180;-71
2023/10/31 05:38:26;;;;;;;8.60;1.48;;;21.70;99.90;;;;;;5093266;28;20204;-71
2023/10/31 05:40:57;;;;;;;11.43;1.80;;;21.70;99.90;;;;;;5092383;28;20203;-71
2023/10/31 05:43:27;;;;;;;9.15;1.52;;;21.70;99.90;;;;;;5086452;28;20197;-71
2023/10/31 05:45:58;;;;;;;13.07;1.65;;;21.60;99.90;;;;;;5078422;28;20207;-71
2023/10/31 05:48:29;;;;;;;11.10;1.77;;;21.50;99.90;;;;;;5073134;28;20213;-71
2023/10/31 05:51:00;;;;;;;9.38;1.55;;;21.50;99.90;;;;;;5074149;28;20206;-72
2023/10/31 05:53:33;;;;;;;12.00;1.65;;;21.60;99.90;;;;;;5073735;28;20284;-72
2023/10/31 05:56:04;;;;;;;8.55;1.58;;;21.60;99.90;;;;;;5082254;28;20274;-72
2023/10/31 05:58:35;;;;;;;7.18;1.60;;;21.70;99.90;;;;;;5084045;28;20200;-73
2023/10/31 06:01:08;;;;;;;7.22;1.65;;;21.80;99.90;;;;;;5090517;28;20232;-72
2023/10/31 06:03:39;;;;;;;12.73;1.63;;;21.90;99.90;;;;;;5094039;28;20283;-72
2023/10/31 06:06:11;;;;;;;8.32;1.33;;;21.70;99.90;;;;;;5079847;28;20211;-73
2023/10/31 06:08:44;;;;;;;7.85;1.40;;;21.70;99.90;;;;;;5082685;28;20220;-73
2023/10/31 06:11:15;;;;;;;6.95;1.42;;;21.60;99.90;;;;;;5073763;28;20491;-72
2023/10/31 06:13:47;;;;;;;8.32;1.25;;;21.60;99.90;;;;;;5088495;28;20224;-72
2023/10/31 06:16:18;;;;;;;10.93;1.70;;;21.60;99.90;;;;;;5093325;28;20496;-73
2023/10/31 06:18:49;;;;;;;9.07;1.63;;;21.30;99.90;;;;;;5082067;28;20197;-72
2023/10/31 06:21:20;;;;;;;13.90;1.73;;;21.20;99.90;;;;;;5076059;28;20188;-72
2023/10/31 06:23:52;;;;;;;10.30;1.70;;;21.10;99.90;;;;;;5077836;28;20204;-72
2023/10/31 06:26:23;;;;;;;9.15;1.35;;;21.10;99.90;;;;;;5072690;28;20195;-73
2023/10/31 06:28:54;;;;;;;8.20;1.50;;;21.20;99.90;;;;;;5073362;28;20216;-73
2023/10/31 06:31:25;;;;;;;10.50;1.67;;;21.10;99.90;;;;;;5073841;28;20596;-73
2023/10/31 06:33:56;;;;;;;8.48;1.50;;;21.10;99.90;;;;;;5082748;28;20203;-73
2023/10/31 06:36:26;;;;;;;9.27;1.77;;;21.20;99.90;;;;;;5082503;28;20288;-74
2023/10/31 06:39:02;;;;;;;11.23;1.50;;;21.00;99.90;;;;;;5077175;28;20280;-74
2023/10/31 06:41:33;;;;;;;7.93;1.60;;;21.00;99.90;;;;;;5080183;28;20192;-72
2023/10/31 06:44:04;;;;;;;9.07;1.48;;;21.00;99.90;;;;;;5097633;28;20192;-73
2023/10/31 06:46:35;;;;;;;9.95;1.23;;;20.90;99.90;;;;;;5074582;28;20203;-73
2023/10/31 06:49:06;;;;;;;9.88;2.10;;;20.90;99.90;;;;;;5076816;28;20216;-74
2023/10/31 06:51:36;;;;;;;8.52;1.48;;;20.80;99.90;;;;;;5085091;28;20579;-72
2023/10/31 06:54:09;;;;;;;10.02;1.77;;;20.40;99.90;;;;;;5082382;28;20660;-74
2023/10/31 06:56:40;;;;;;;11.07;1.42;;;20.20;99.90;;;;;;5080049;28;20201;-74
2023/10/31 06:59:11;;;;;;;10.65;1.63;;;20.10;99.90;;;;;;5082308;28;20236;-73
2023/10/31 07:01:43;;;;;;;8.40;1.52;;;20.10;99.90;;;;;;5082081;28;20665;-74
2023/10/31 07:04:13;;;;;;;11.20;2.30;;;20.20;99.90;;;;;;5081867;28;20188;-73
2023/10/31 07:06:44;;;;;;;8.93;1.40;;;20.20;99.90;;;;;;5082410;28;20181;-74
2023/10/31 07:09:20;;;;;;;10.10;1.40;;;20.20;99.90;;;;;;5083350;28;20212;-73
2023/10/31 07:11:50;;;;;;;9.57;1.30;;;20.10;99.90;;;;;;5076986;28;20196;-73
2023/10/31 07:14:22;;;;;;;9.60;1.50;;;20.00;99.90;;;;;;5075209;28;20185;-74
2023/10/31 07:16:53;;;;;;;10.00;1.73;;;20.00;99.90;;;;;;5079355;28;20212;-73
2023/10/31 07:19:23;;;;;;;6.93;1.70;;;19.90;99.90;;;;;;5079729;28;20199;-74
2023/10/31 07:21:54;;;;;;;6.57;1.27;;;19.90;99.90;;;;;;5081567;28;20193;-74
2023/10/31 07:24:28;;;;;;;8.18;1.30;;;19.90;99.90;;;;;;5082010;28;20562;-74
2023/10/31 07:26:59;;;;;;;10.07;1.58;;;19.90;99.90;;;;;;5075547;28;20193;-75
2023/10/31 07:29:30;;;;;;;8.93;1.27;;;19.90;99.90;;;;;;5076012;28;20660;-76
2023/10/31 07:32:00;;;;;;;8.73;1.63;;;19.80;99.90;;;;;;5083467;28;20547;-74
2023/10/31 07:34:33;;;;;;;8.65;1.80;;;19.70;99.90;;;;;;5084302;28;20645;-73
2023/10/31 07:37:04;;;;;;;10.90;1.60;;;19.60;99.90;;;;;;5083463;28;20200;-74
2023/10/31 07:39:37;;;;;;;9.00;1.77;;;19.60;99.90;;;;;;5088682;28;20196;-73
2023/10/31 07:42:09;;;;;;;11.50;1.70;;;19.50;99.90;;;;;;5083996;28;20197;-74
2023/10/31 07:44:40;;;;;;;7.90;1.35;;;19.40;99.90;;;;;;5082722;28;20244;-72
2023/10/31 07:47:11;;;;;;;9.48;1.23;;;19.40;99.90;;;;;;5082800;28;20200;-72
2023/10/31 07:49:42;;;;;;;6.88;1.40;;;19.30;99.90;;;;;;5085120;28;20213;-74
2023/10/31 07:52:13;;;;;;;8.25;1.48;;;19.30;99.90;;;;;;5090177;28;20185;-72
2023/10/31 07:54:46;;;;;;;9.70;1.40;;;19.20;99.90;;;;;;5082757;28;20201;-74
2023/10/31 07:57:17;;;;;;;10.35;1.60;;;19.30;99.90;;;;;;5077447;28;20296;-74
2023/10/31 07:59:49;;;;;;;8.50;1.25;;;19.20;99.90;;;;;;5089981;28;20228;-74
2023/10/31 08:02:20;;;;;;;9.40;1.73;;;19.20;99.90;;;;;;5080949;28;20193;-73
2023/10/31 08:04:51;;;;;;;8.45;1.60;;;19.10;99.90;;;;;;5087809;28;20188;-72
2023/10/31 08:07:23;;;;;;;10.10;1.70;;;19.10;99.90;;;;;;5078276;28;20657;-73
2023/10/31 08:09:56;;;;;;;11.25;2.00;;;19.10;99.90;;;;;;5081307;28;20248;-75
2023/10/31 08:12:26;;;;;;;6.70;1.50;;;19.10;99.90;;;;;;5073930;28;20740;-74
2023/10/31 08:14:58;;;;;;;9.10;1.60;;;19.00;99.90;;;;;;5075908;28;20577;-75
2023/10/31 08:17:29;;;;;;;10.27;1.83;;;19.00;99.90;;;;;;5086913;28;20196;-76
2023/10/31 08:19:59;;;;;;;10.70;1.50;;;19.00;99.90;;;;;;5090621;28;20660;-75
2023/10/31 08:22:30;;;;;;;8.60;1.50;;;19.00;99.90;;;;;;5074843;28;20199;-74
2023/10/31 08:25:03;;;;;;;8.23;1.23;;;18.90;99.90;;;;;;5087170;28;20207;-75
2023/10/31 08:27:34;;;;;;;11.43;1.65;;;18.90;99.90;;;;;;5084700;28;20197;-75
2023/10/31 08:30:05;;;;;;;6.82;1.30;;;18.90;99.90;;;;;;5079257;28;20692;-74
2023/10/31 08:32:36;;;;;;;10.13;1.75;;;18.90;99.90;;;;;;5074676;28;20295;-75
2023/10/31 08:35:07;;;;;;;6.57;1.20;;;18.80;99.90;;;;;;5077963;28;20211;-75
2023/10/31 08:37:38;;;;;;;10.48;2.13;;;18.80;99.90;;;;;;5082431;28;20729;-75
2023/10/31 08:40:11;;;;;;;6.70;1.45;;;18.90;99.90;;;;;;5078592;28;20656;-75
2023/10/31 08:42:42;;;;;;;9.77;1.42;;;18.80;99.90;;;;;;5086905;28;20219;-76
2023/10/31 08:45:13;;;;;;;9.15;1.48;;;18.80;99.90;;;;;;5078013;28;20196;-76
2023/10/31 08:47:44;;;;;;;9.25;1.63;;;18.80;99.90;;;;;;5088105;28;20280;-75
2023/10/31 08:50:15;;;;;;;9.18;1.40;;;18.80;99.90;;;;;;5090496;28;20212;-75
2023/10/31 08:52:45;;;;;;;7.70;1.30;;;18.80;99.90;;;;;;5085021;28;20562;-73
2023/10/31 08:55:18;;;;;;;7.03;1.38;;;18.70;99.90;;;;;;5090260;28;20628;-74
2023/10/31 08:57:49;;;;;;;8.45;1.48;;;18.70;99.90;;;;;;5090560;28;20204;-75
2023/10/31 09:00:20;;;;;;;6.32;1.27;;;18.70;99.90;;;;;;5075460;28;20229;-74
2023/10/31 09:02:51;;;;;;;8.82;1.35;;;18.70;99.90;;;;;;5080156;28;20228;-74
2023/10/31 09:05:22;;;;;;;11.07;1.40;;;18.70;99.90;;;;;;5090397;28;20204;-74
2023/10/31 09:07:53;;;;;;;9.27;1.40;;;18.70;99.90;;;;;;5081051;28;20207;-74
2023/10/31 09:10:25;;;;;;;6.35;1.33;;;18.70;99.90;;;;;;5094500;28;20216;-74
2023/10/31 09:12:59;;;;;;;8.05;1.38;;;18.70;99.90;;;;;;5094664;28;20492;-74
2023/10/31 09:15:29;;;;;;;5.38;1.23;;;18.60;99.90;;;;;;5093426;28;20632;-74
2023/10/31 09:18:00;;;;;;;7.72;1.63;;;18.60;99.90;;;;;;5094092;28;20272;-74
2023/10/31 09:20:31;;;;;;;5.35;1.33;;;18.60;99.90;;;;;;5082432;28;20205;-74
2023/10/31 09:23:02;;;;;;;8.50;1.80;;;18.60;99.90;;;;;;5090560;28;20192;-74
2023/10/31 09:25:34;;;;;;;9.77;1.15;;;18.60;99.90;;;;;;5087177;28;20192;-73
2023/10/31 09:28:05;;;;;;;10.90;1.48;;;18.60;99.90;;;;;;5074056;28;20592;-74
2023/10/31 09:30:36;;;;;;;8.98;1.15;;;18.60;99.90;;;;;;5087428;28;20219;-74
2023/10/31 09:33:07;;;;;;;9.27;1.45;;;18.60;99.90;;;;;;5094376;28;20271;-74
2023/10/31 09:35:38;;;;;;;8.40;1.67;;;18.50;99.90;;;;;;5075670;28;20660;-74
2023/10/31 09:38:09;;;;;;;7.13;1.55;;;18.50;99.90;;;;;;5073872;28;20203;-74
2023/10/31 09:40:45;;;;;;;10.10;1.50;;;18.50;99.90;;;;;;5075970;28;20262;-73
2023/10/31 09:43:16;;;;;;;4.35;0.98;;;18.50;99.90;;;;;;5093963;28;20279;-74
2023/10/31 09:45:47;;;;;;;6.75;1.27;;;18.50;99.90;;;;;;5086140;28;20193;-73
2023/10/31 09:48:18;;;;;;;8.48;1.50;;;18.50;99.90;;;;;;5073101;28;20200;-75
2023/10/31 09:50:50;;;;;;;6.88;1.52;;;18.50;99.90;;;;;;5089506;28;20671;-75
2023/10/31 09:53:21;;;;;;;8.43;1.80;;;18.60;99.90;;;;;;5078941;28;20193;-73
2023/10/31 09:55:56;;;;;;;9.85;1.60;;;18.60;99.90;;;;;;5074064;28;20203;-75
2023/10/31 09:58:27;;;;;;;9.77;1.77;;;18.60;99.90;;;;;;5079535;28;21243;-75
2023/10/31 10:00:58;;;;;;;8.15;1.42;;;18.60;99.90;;;;;;5072441;28;20260;-74
2023/10/31 10:03:30;;;;;;;10.88;1.80;;;18.60;99.90;;;;;;5075732;28;20753;-74
2023/10/31 10:06:01;;;;;;;8.00;1.20;;;18.60;99.90;;;;;;5085717;28;20287;-74
2023/10/31 10:08:35;;;;;;;9.90;1.63;;;18.50;99.90;;;;;;5086280;28;20189;-75
2023/10/31 10:11:08;;;;;;;11.65;1.70;;;18.50;99.90;;;;;;5077955;28;20229;-76
2023/10/31 10:13:39;;;;;;;11.43;1.80;;;18.50;99.90;;;;;;5073462;28;20193;-74
2023/10/31 10:16:11;;;;;;;8.50;1.83;;;18.50;99.90;;;;;;5077956;28;20205;-74
2023/10/31 10:18:44;;;;;;;9.30;1.67;;;18.50;99.90;;;;;;5077597;28;20201;-75
2023/10/31 10:21:16;;;;;;;7.47;1.40;;;18.60;99.90;;;;;;5077247;28;20196;-74
2023/10/31 10:23:49;;;;;;;7.50;1.88;;;18.60;99.90;;;;;;5080297;28;20203;-73
2023/10/31 10:26:25;;;;;;;5.22;1.25;;;18.60;99.90;;;;;;5085128;28;20553;-73
2023/10/31 10:28:56;;;;;;;7.85;1.30;;;18.70;99.90;;;;;;5077320;28;20262;-73
2023/10/31 10:31:28;;;;;;;10.23;2.03;;;18.70;99.90;;;;;;5085914;28;20203;-73
2023/10/31 10:34:01;;;;;;;9.48;1.45;;;18.70;99.90;;;;;;5081524;28;20653;-73
2023/10/31 10:36:34;;;;;;;7.45;1.67;;;18.70;99.90;;;;;;5075110;28;20199;-72
2023/10/31 10:39:05;;;;;;;9.32;1.63;;;18.70;99.90;;;;;;5074397;28;20596;-73
2023/10/31 10:41:41;;;;;;;8.18;1.63;;;18.60;99.90;;;;;;5073867;28;20197;-72
2023/10/31 10:44:13;;;;;;;8.60;1.73;;;18.60;99.90;;;;;;5078617;28;20211;-72
2023/10/31 10:46:47;;;;;;;6.75;1.67;;;18.70;99.90;;;;;;5076902;28;20193;-73
2023/10/31 10:49:20;;;;;;;7.75;1.52;;;18.60;99.90;;;;;;5080733;28;20216;-73
2023/10/31 10:52:02;;;;;;;9.77;1.63;;;18.60;99.90;;;;;;5079549;28;20200;-72
2023/10/31 10:54:39;;;;;;;9.60;1.67;;;18.60;99.90;;;;;;5079302;28;20250;-73
2023/10/31 10:57:18;;;;;;;8.50;1.63;;;18.60;99.90;;;;;;5085016;28;20202;-73
2023/10/31 10:59:52;;;;;;;8.90;2.00;;;18.50;99.90;;;;;;5077091;28;20924;-74
2023/10/31 11:02:24;;;;;;;9.13;1.75;;;18.50;99.90;;;;;;5087343;28;20191;-72
2023/10/31 11:04:55;;;;;;;9.85;2.22;;;18.50;99.90;;;;;;5086223;28;20682;-73
2023/10/31 11:07:27;;;;;;;9.20;1.67;;;18.50;99.90;;;;;;5073985;28;20201;-73
2023/10/31 11:10:01;;;;;;;5.57;1.55;;;18.50;99.90;;;;;;5085620;28;20220;-72
2023/10/31 11:12:35;;;;;;;7.82;1.65;;;18.40;99.90;;;;;;5082156;28;20294;-72
2023/10/31 11:15:06;;;;;;;6.60;1.63;;;18.40;99.90;;;;;;5085306;28;20656;-73
2023/10/31 11:17:39;;;;;;;8.48;1.75;;;18.40;99.90;;;;;;5094233;28;20200;-72
2023/10/31 11:20:14;;;;;;;7.50;1.67;;;18.40;99.90;;;;;;5090422;28;20196;-72
2023/10/31 11:22:45;;;;;;;8.77;1.50;;;18.40;99.90;;;;;;5074693;28;20652;-73
2023/10/31 11:25:18;;;;;;;8.38;1.55;;;18.40;99.90;;;;;;5075070;28;20197;-73
2023/10/31 11:27:50;;;;;;;11.57;1.73;;;18.40;99.90;;;;;;5077663;28;20282;-73
2023/10/31 11:30:32;;;;;;;8.35;1.90;;;18.40;99.90;;;;;;5084607;28;20219;-74
2023/10/31 11:33:05;;;;;;;9.32;1.58;;;18.30;99.90;;;;;;5086490;28;20664;-72
2023/10/31 11:35:37;;;;;;;12.38;2.28;;;18.30;99.90;;;;;;5093836;28;20655;-71
2023/10/31 11:38:07;;;;;;;9.48;1.77;;;18.30;99.90;;;;;;5078533;28;20196;-71
2023/10/31 11:40:38;;;;;;;6.20;1.67;;;18.20;99.90;;;;;;5081339;28;20269;-71
2023/10/31 11:43:11;;;;;;;10.43;1.60;;;18.20;99.90;;;;;;5081202;28;20283;-72
2023/10/31 11:45:47;;;;;;;7.07;1.40;;;18.20;99.90;;;;;;5090920;28;20204;-74
2023/10/31 11:48:18;;;;;;;12.57;1.67;;;18.20;99.90;;;;;;5085910;28;20294;-74
2023/10/31 11:50:49;;;;;;;6.63;1.60;;;18.20;99.90;;;;;;5075573;28;20788;-73
2023/10/31 11:53:22;;;;;;;8.32;1.67;;;18.20;99.90;;;;;;5078922;28;20211;-74
2023/10/31 11:55:56;;;;;;;9.48;1.50;;;18.20;99.90;;;;;;5079415;28;20197;-74
2023/10/31 11:58:30;;;;;;;11.40;1.80;;;18.20;99.90;;;;;;5082056;28;20197;-74
2023/10/31 12:01:06;;;;;;;5.95;1.33;;;18.20;99.90;;;;;;5088409;28;20240;-74
2023/10/31 12:03:41;;;;;;;8.32;1.60;;;18.30;99.90;;;;;;5082934;28;20628;-75
2023/10/31 12:06:13;;;;;;;7.50;1.50;;;18.30;99.90;;;;;;5085713;28;20217;-76
2023/10/31 12:08:44;;;;;;;11.75;1.73;;;18.30;99.90;;;;;;5095793;28;20609;-74
2023/10/31 12:11:16;;;;;;;11.18;1.85;;;18.40;99.90;;;;;;5089718;28;20215;-75
2023/10/31 12:13:56;;;;;;;9.63;1.85;;;18.30;99.90;;;;;;5088584;28;20203;-74
2023/10/31 12:16:28;;;;;;;10.93;1.60;;;18.30;99.90;;;;;;5086410;28;20206;-73
2023/10/31 12:19:00;;;;;;;10.73;1.63;;;18.30;99.90;;;;;;5081663;28;20201;-74
2023/10/31 12:21:41;;;;;;;10.98;1.60;;;18.30;99.90;;;;;;5085307;28;20234;-74
2023/10/31 12:24:16;;;;;;;9.68;1.90;;;18.30;99.90;;;;;;5083630;28;20192;-74
2023/10/31 12:26:47;;;;;;;15.52;1.90;;;18.30;99.90;;;;;;5091140;28;20188;-75
2023/10/31 12:29:21;;;;;;;10.93;1.60;;;18.30;99.90;;;;;;5090845;28;20220;-74
2023/10/31 12:31:53;;;;;;;10.35;1.88;;;18.20;99.90;;;;;;5081351;28;20197;-74
2023/10/31 12:34:25;;;;;;;8.50;1.63;;;18.20;99.90;;;;;;5095196;28;20317;-75
2023/10/31 12:36:59;;;;;;;8.15;1.52;;;18.10;99.90;;;;;;5079021;28;20200;-75
2023/10/31 12:39:30;;;;;;;11.48;1.80;;;18.10;99.90;;;;;;5091159;28;20527;-74
2023/10/31 12:42:01;;;;;;;6.82;1.73;;;18.10;99.90;;;;;;5085726;28;20200;-74
2023/10/31 12:44:34;;;;;;;11.00;2.15;;;18.00;99.90;;;;;;5086953;28;20551;-75
2023/10/31 12:47:09;;;;;;;9.52;1.80;;;18.00;99.90;;;;;;5081572;28;20191;-74
2023/10/31 12:49:40;;;;;;;9.43;1.75;;;18.00;99.90;;;;;;5081871;28;20211;-74
2023/10/31 12:52:11;;;;;;;8.70;1.27;;;18.00;99.90;;;;;;5094969;28;20192;-74
2023/10/31 12:54:42;;;;;;;5.90;1.48;;;17.90;99.90;;;;;;5088775;28;20216;-75
2023/10/31 12:57:13;;;;;;;11.10;1.48;;;17.90;99.90;;;;;;5091077;28;20200;-74
2023/10/31 12:59:46;;;;;;;7.13;1.65;;;17.90;99.90;;;;;;5088801;28;20230;-74
2023/10/31 13:02:20;;;;;;;5.63;1.30;;;17.90;99.90;;;;;;5081791;28;20193;-74
2023/10/31 13:04:51;;;;;;;6.88;1.40;;;17.90;99.90;;;;;;5083833;28;20640;-75